Time;durP1;ratioP1;P1;durP2;ratioP2;P2;SDS_P1;SDS_P2;PMS_P1;PMS_P2;Temp;Humidity;BMP_temperature;BMP_pressure;BME280_temperature;BME280_humidity;BME280_pressure;Samples;Min_cycle;Max_cycle;Signal;HPM_P1;HPM_P2
2022/11/18 00:01:34;;;;;;;12.73;10.00;;;3.70;23.10;;;;;;5055218;28;20471;-75
2022/11/18 00:04:00;;;;;;;16.00;10.43;;;3.70;27.50;;;;;;5055405;28;20885;-69
2022/11/18 00:06:28;;;;;;;12.17;10.00;;;3.70;27.00;;;;;;5056378;28;20437;-75
2022/11/18 00:08:54;;;;;;;18.43;10.70;;;3.80;30.30;;;;;;5056560;28;20413;-68
2022/11/18 00:14:19;;;;;;;17.13;12.70;;;3.80;22.20;;;;;;5056048;28;20451;-74
2022/11/18 00:16:46;;;;;;;15.77;11.50;;;3.80;17.50;;;;;;5055752;28;20922;-69
2022/11/18 00:19:13;;;;;;;17.80;12.53;;;3.70;20.00;;;;;;5056226;28;20390;-70
2022/11/18 00:21:39;;;;;;;21.47;13.40;;;3.70;12.20;;;;;;5056184;28;20893;-69
2022/11/18 00:24:05;;;;;;;21.57;14.80;;;3.70;17.40;;;;;;5055418;28;20441;-73
2022/11/18 00:26:30;;;;;;;23.67;14.60;;;3.70;14.60;;;;;;5055927;28;20939;-69
2022/11/18 00:28:56;;;;;;;21.10;14.27;;;3.60;13.70;;;;;;5056023;28;20420;-74
2022/11/18 00:31:22;;;;;;;20.53;14.73;;;3.50;14.10;;;;;;5055932;28;20170;-70
2022/11/18 00:33:47;;;;;;;19.20;14.37;;;3.50;14.80;;;;;;5055318;28;20175;-74
2022/11/18 00:36:13;;;;;;;21.40;14.10;;;3.50;15.70;;;;;;5055331;28;20218;-69
2022/11/18 00:38:39;;;;;;;21.60;14.67;;;3.50;13.70;;;;;;5055945;28;20246;-69
2022/11/18 00:41:09;;;;;;;23.33;15.20;;;3.50;15.20;;;;;;5055370;28;20175;-69
2022/11/18 00:43:35;;;;;;;22.53;14.30;;;3.60;13.50;;;;;;5055402;28;20408;-69
2022/11/18 00:46:01;;;;;;;27.67;16.50;;;3.60;7.30;;;;;;5055377;28;20461;-74
2022/11/18 00:48:27;;;;;;;25.47;15.63;;;3.60;10.30;;;;;;5055686;28;20430;-69
2022/11/18 00:50:55;;;;;;;27.63;17.70;;;3.50;9.00;;;;;;5055611;28;20398;-74
2022/11/18 00:53:23;;;;;;;25.30;15.27;;;3.50;8.20;;;;;;5054871;28;20394;-69
2022/11/18 00:55:49;;;;;;;27.17;16.20;;;3.50;5.60;;;;;;5054828;28;20480;-69
2022/11/18 00:58:15;;;;;;;33.23;16.70;;;3.50;10.50;;;;;;5055444;28;20406;-74
2022/11/18 01:00:47;;;;;;;23.07;14.77;;;3.50;8.70;;;;;;5055558;28;20955;-69
2022/11/18 01:03:13;;;;;;;23.10;14.53;;;3.50;9.30;;;;;;5055404;28;20163;-74
2022/11/18 01:05:40;;;;;;;22.33;14.57;;;3.40;1.00;;;;;;5054350;28;21054;-69
2022/11/18 01:08:07;;;;;;;26.80;15.00;;;3.30;1.00;;;;;;5055457;28;20413;-69
2022/11/18 01:10:34;;;;;;;25.87;15.87;;;3.20;1.20;;;;;;5054613;28;20413;-69
2022/11/18 01:15:48;;;;;;;28.60;15.97;;;3.30;1.00;;;;;;5054514;28;20416;-70
2022/11/18 01:18:15;;;;;;;32.13;15.80;;;3.30;4.70;;;;;;5055202;28;20406;-73
2022/11/18 01:20:41;;;;;;;26.83;16.60;;;3.30;1.00;;;;;;5055067;28;20472;-73
2022/11/18 01:23:07;;;;;;;27.20;15.23;;;3.30;4.30;;;;;;5055176;28;20405;-68
2022/11/18 01:25:36;;;;;;;24.30;14.53;;;3.30;1.00;;;;;;5054250;28;20806;-73
2022/11/18 01:28:02;;;;;;;23.00;13.97;;;3.40;3.10;;;;;;5054915;28;20585;-74
2022/11/18 01:30:27;;;;;;;23.30;15.47;;;3.40;1.00;;;;;;5054422;28;20878;-75
2022/11/18 01:32:53;;;;;;;28.43;16.33;;;3.40;1.00;;;;;;5054570;28;20424;-69
2022/11/18 01:35:19;;;;;;;33.47;19.50;;;3.40;1.00;;;;;;5052966;28;20217;-73
2022/11/18 01:37:45;;;;;;;27.40;16.27;;;3.30;1.00;;;;;;5054675;28;20632;-69
2022/11/18 01:40:11;;;;;;;27.80;16.17;;;3.30;1.00;;;;;;5054577;28;20705;-74
2022/11/18 01:42:37;;;;;;;26.17;16.77;;;3.30;1.00;;;;;;5054678;28;20173;-74
2022/11/18 01:45:08;;;;;;;26.47;16.50;;;3.30;1.00;;;;;;5053620;28;20478;-68
2022/11/18 01:47:45;;;;;;;30.77;16.30;;;3.30;1.00;;;;;;5054169;28;20505;-73
2022/11/18 01:50:13;;;;;;;26.87;15.90;;;3.30;1.00;;;;;;5054226;28;20433;-74
2022/11/18 01:52:39;;;;;;;26.97;17.03;;;3.20;1.00;;;;;;5069419;28;20410;-74
2022/11/18 01:55:15;;;;;;;26.87;14.70;;;3.10;1.00;;;;;;5053122;28;20436;-68
2022/11/18 01:57:42;;;;;;;25.80;13.80;;;3.10;1.00;;;;;;5054303;28;20432;-73
2022/11/18 02:00:09;;;;;;;24.27;15.40;;;3.10;1.00;;;;;;5054103;28;20441;-71
2022/11/18 02:02:36;;;;;;;22.37;14.93;;;3.20;1.00;;;;;;5054614;28;20436;-74
2022/11/18 02:05:05;;;;;;;21.37;15.63;;;3.20;1.00;;;;;;5052876;28;20548;-70
2022/11/18 02:07:40;;;;;;;24.30;14.83;;;3.20;1.00;;;;;;5054241;28;20413;-74
2022/11/18 02:10:08;;;;;;;21.47;13.37;;;3.10;1.00;;;;;;5054180;28;20419;-75
2022/11/18 02:12:35;;;;;;;18.30;13.87;;;3.10;1.00;;;;;;5054064;28;20398;-69
2022/11/18 02:15:02;;;;;;;18.50;11.80;;;3.00;1.00;;;;;;5053413;28;20394;-74
2022/11/18 02:17:57;;;;;;;21.00;12.40;;;3.00;1.00;;;;;;5054022;28;20906;-74
2022/11/18 02:20:40;;;;;;;21.30;13.90;;;3.00;1.00;;;;;;5053946;28;20405;-74
2022/11/18 02:23:27;;;;;;;19.03;12.13;;;2.90;1.00;;;;;;5053440;28;20438;-69
2022/11/18 02:26:14;;;;;;;22.80;13.83;;;2.90;1.00;;;;;;5053339;28;20531;-69
2022/11/18 02:29:05;;;;;;;16.57;11.17;;;3.00;1.00;;;;;;5053836;28;20499;-69
2022/11/18 02:32:02;;;;;;;33.37;13.27;;;3.10;1.00;;;;;;5035363;28;20420;-69
2022/11/18 02:34:28;;;;;;;22.20;12.93;;;3.10;1.00;;;;;;5051888;28;20429;-69
2022/11/18 02:37:05;;;;;;;20.77;12.77;;;3.00;1.00;;;;;;5053659;28;20425;-69
2022/11/18 02:39:38;;;;;;;17.73;11.47;;;3.00;1.00;;;;;;5053621;28;20654;-69
2022/11/18 02:42:08;;;;;;;14.43;11.00;;;2.90;1.00;;;;;;5053176;28;20409;-74
2022/11/18 02:44:36;;;;;;;20.07;10.73;;;3.00;1.00;;;;;;5052757;28;20801;-69
2022/11/18 02:47:06;;;;;;;19.37;11.77;;;3.10;1.00;;;;;;5052115;28;20940;-69
2022/11/18 02:49:37;;;;;;;18.60;12.03;;;3.10;1.00;;;;;;5053490;28;20763;-69
2022/11/18 02:52:05;;;;;;;18.13;13.20;;;3.10;1.00;;;;;;5053443;28;20397;-69
2022/11/18 02:54:35;;;;;;;22.00;12.50;;;3.00;1.00;;;;;;5052396;28;20409;-69
2022/11/18 02:57:03;;;;;;;20.07;11.33;;;3.00;1.00;;;;;;5053322;28;20491;-69
2022/11/18 02:59:29;;;;;;;16.87;11.97;;;3.00;1.00;;;;;;5053504;28;20417;-70
2022/11/18 03:01:54;;;;;;;16.50;11.17;;;3.00;1.00;;;;;;5052907;28;20402;-69
2022/11/18 03:04:23;;;;;;;18.00;11.53;;;3.00;1.00;;;;;;5052829;28;20199;-70
2022/11/18 03:07:21;;;;;;;16.60;11.60;;;3.10;1.00;;;;;;5053062;28;20521;-73
2022/11/18 03:09:50;;;;;;;18.53;11.27;;;3.10;1.00;;;;;;5044032;28;20409;-69
2022/11/18 03:12:37;;;;;;;14.00;10.03;;;3.10;1.00;;;;;;5053110;28;20416;-69
2022/11/18 03:15:25;;;;;;;13.47;9.53;;;3.10;1.00;;;;;;5052464;28;20406;-69
2022/11/18 03:18:03;;;;;;;13.47;9.50;;;3.20;1.00;;;;;;5053308;28;20401;-74
2022/11/18 03:20:52;;;;;;;16.03;10.80;;;3.20;1.00;;;;;;5052756;28;20412;-74
2022/11/18 03:23:42;;;;;;;12.73;10.40;;;3.20;1.00;;;;;;5053219;28;20413;-74
2022/11/18 03:26:24;;;;;;;15.53;10.40;;;3.20;1.00;;;;;;5053117;28;20488;-74
2022/11/18 03:29:11;;;;;;;15.87;10.50;;;3.20;1.00;;;;;;5051801;28;20780;-70
2022/11/18 03:31:45;;;;;;;17.30;10.27;;;3.30;1.00;;;;;;5053076;28;20907;-73
2022/11/18 03:34:26;;;;;;;14.17;9.30;;;3.30;1.00;;;;;;5052454;28;20478;-74
2022/11/18 03:36:57;;;;;;;18.00;11.30;;;3.10;1.00;;;;;;5051595;28;20448;-69
2022/11/18 03:39:25;;;;;;;12.07;9.27;;;3.00;1.00;;;;;;5052657;28;20420;-73
2022/11/18 03:42:04;;;;;;;12.23;8.57;;;3.00;1.00;;;;;;5053005;28;20405;-73
2022/11/18 03:44:33;;;;;;;18.70;10.23;;;3.00;1.00;;;;;;5051942;28;20540;-74
2022/11/18 03:47:11;;;;;;;14.97;9.40;;;3.00;1.00;;;;;;5052797;28;20421;-73
2022/11/18 03:49:56;;;;;;;19.03;10.77;;;2.90;1.00;;;;;;5053006;28;20405;-74
2022/11/18 03:52:26;;;;;;;14.37;8.30;;;2.90;1.00;;;;;;5051858;28;20754;-70
2022/11/18 03:54:55;;;;;;;14.90;10.00;;;2.80;1.00;;;;;;5052175;28;20408;-69
2022/11/18 03:57:38;;;;;;;13.40;8.83;;;2.80;1.00;;;;;;5052215;28;20533;-69
2022/11/18 04:00:13;;;;;;;15.20;10.57;;;2.90;1.00;;;;;;5052880;28;20417;-69
2022/11/18 04:02:39;;;;;;;13.20;9.17;;;2.80;1.00;;;;;;5052758;28;20409;-74
2022/11/18 04:05:09;;;;;;;14.97;9.70;;;2.70;1.00;;;;;;5051812;28;20467;-69
2022/11/18 04:07:56;;;;;;;14.87;9.93;;;2.60;1.00;;;;;;5052613;28;20432;-74
2022/11/18 04:10:25;;;;;;;13.63;10.10;;;2.50;1.00;;;;;;5052769;28;20476;-73
2022/11/18 04:13:03;;;;;;;11.93;8.63;;;2.50;1.00;;;;;;5052799;28;20409;-69
2022/11/18 04:15:30;;;;;;;10.57;8.10;;;2.40;1.00;;;;;;5051801;28;20484;-73
2022/11/18 04:17:57;;;;;;;14.10;8.77;;;2.30;1.00;;;;;;5054883;28;20522;-68
2022/11/18 04:20:23;;;;;;;18.10;9.30;;;2.40;1.00;;;;;;5056194;28;20405;-69
2022/11/18 04:22:49;;;;;;;15.67;9.20;;;2.40;1.00;;;;;;5056287;28;20401;-73
2022/11/18 04:25:15;;;;;;;10.33;7.80;;;2.40;1.00;;;;;;5055266;28;20471;-70
2022/11/18 04:27:41;;;;;;;11.47;8.73;;;2.40;1.00;;;;;;5056087;28;20183;-73
2022/11/18 04:30:08;;;;;;;13.33;8.83;;;2.40;1.00;;;;;;5055827;28;20456;-69
2022/11/18 04:32:33;;;;;;;14.00;8.63;;;2.30;1.00;;;;;;5055977;28;20199;-69
2022/11/18 04:34:59;;;;;;;13.67;8.47;;;2.30;1.00;;;;;;5055369;28;20440;-72
2022/11/18 04:37:25;;;;;;;11.17;8.20;;;2.30;1.00;;;;;;5055218;28;20914;-74
2022/11/18 04:39:51;;;;;;;10.87;8.10;;;2.30;1.00;;;;;;5055927;28;20417;-73
2022/11/18 04:42:17;;;;;;;11.20;7.90;;;2.40;1.00;;;;;;5055910;28;20167;-69
2022/11/18 04:44:43;;;;;;;9.50;7.00;;;2.40;1.00;;;;;;5055008;28;20203;-73
2022/11/18 04:47:08;;;;;;;20.60;8.60;;;2.50;1.00;;;;;;5055669;28;20471;-72
2022/11/18 04:49:35;;;;;;;8.07;6.57;;;2.40;1.00;;;;;;5054349;28;20414;-72
2022/11/18 04:52:01;;;;;;;10.10;6.80;;;2.40;1.00;;;;;;5054100;28;20171;-70
2022/11/18 04:54:27;;;;;;;8.57;6.27;;;2.50;1.00;;;;;;5054776;28;20435;-73
2022/11/18 04:56:54;;;;;;;10.43;7.30;;;2.50;1.00;;;;;;5055601;28;20483;-69
2022/11/18 04:59:22;;;;;;;8.23;6.10;;;2.50;1.00;;;;;;5055440;28;20419;-69
2022/11/18 05:01:49;;;;;;;9.50;6.77;;;2.50;1.00;;;;;;5055559;28;20424;-69
2022/11/18 05:04:17;;;;;;;9.20;6.10;;;2.50;1.00;;;;;;5054561;28;20515;-69
2022/11/18 05:06:43;;;;;;;9.07;7.33;;;2.50;1.00;;;;;;5054093;28;20532;-73
2022/11/18 05:09:10;;;;;;;7.57;6.13;;;2.40;1.00;;;;;;5055290;28;20455;-72
2022/11/18 05:14:20;;;;;;;9.63;6.80;;;2.30;1.00;;;;;;5054783;28;20905;-72
2022/11/18 05:16:45;;;;;;;11.30;6.80;;;2.40;1.00;;;;;;5055113;28;20425;-68
2022/11/18 05:19:12;;;;;;;7.57;6.80;;;2.30;1.00;;;;;;5055126;28;20262;-68
2022/11/18 05:21:38;;;;;;;8.87;7.47;;;2.20;1.00;;;;;;5055143;28;20183;-70
2022/11/18 05:24:04;;;;;;;10.97;7.80;;;2.20;1.00;;;;;;5054349;28;20460;-72
2022/11/18 05:26:30;;;;;;;9.17;6.47;;;2.20;1.00;;;;;;5055349;28;20413;-72
2022/11/18 05:28:56;;;;;;;9.73;6.77;;;2.20;1.00;;;;;;5054854;28;20390;-70
2022/11/18 05:31:22;;;;;;;9.27;7.30;;;2.20;1.00;;;;;;5054732;28;20408;-69
2022/11/18 05:33:48;;;;;;;10.70;7.47;;;2.20;1.00;;;;;;5054093;28;20296;-69
2022/11/18 05:36:16;;;;;;;10.27;7.33;;;2.20;1.00;;;;;;5054912;28;20220;-73
2022/11/18 05:38:42;;;;;;;9.63;6.83;;;2.20;1.00;;;;;;5054746;28;20175;-69
2022/11/18 05:41:08;;;;;;;7.00;6.23;;;2.20;1.00;;;;;;5054801;28;20505;-72
2022/11/18 05:43:35;;;;;;;9.47;6.90;;;2.10;1.00;;;;;;5054389;28;20406;-69
2022/11/18 05:46:02;;;;;;;12.07;6.77;;;2.10;1.00;;;;;;5054358;28;20461;-72
2022/11/18 05:48:29;;;;;;;8.57;6.80;;;2.20;1.00;;;;;;5052781;28;20483;-69
2022/11/18 05:50:55;;;;;;;10.03;6.27;;;2.20;1.00;;;;;;5054617;28;20902;-72
2022/11/18 05:53:23;;;;;;;12.00;7.47;;;2.20;1.00;;;;;;5054276;28;20735;-69
2022/11/18 05:56:06;;;;;;;8.37;6.73;;;2.20;1.00;;;;;;5053661;28;20429;-73
2022/11/18 05:58:31;;;;;;;9.33;6.50;;;2.20;1.00;;;;;;5054324;28;20441;-72
2022/11/18 06:01:01;;;;;;;11.50;7.20;;;2.20;1.00;;;;;;5054571;28;20460;-69
2022/11/18 06:03:34;;;;;;;9.00;6.53;;;2.20;1.00;;;;;;5054063;28;20171;-72
2022/11/18 06:06:02;;;;;;;10.27;7.13;;;2.20;1.00;;;;;;5053478;28;20464;-73
2022/11/18 06:08:32;;;;;;;8.53;6.10;;;2.20;1.00;;;;;;5053777;28;20429;-71
2022/11/18 06:10:58;;;;;;;9.40;6.13;;;2.20;1.00;;;;;;5054100;28;20476;-69
2022/11/18 06:13:32;;;;;;;7.90;6.87;;;2.10;1.00;;;;;;5052753;28;20830;-68
2022/11/18 06:15:58;;;;;;;9.33;7.07;;;2.10;1.00;;;;;;5053550;28;20755;-70
2022/11/18 06:18:27;;;;;;;6.35;5.63;;;2.10;1.00;;;;;;5052582;28;20480;-69
2022/11/18 06:20:58;;;;;;;7.67;5.10;;;2.10;1.00;;;;;;5054155;28;20582;-69
2022/11/18 06:23:24;;;;;;;8.83;6.67;;;2.20;1.00;;;;;;5053920;28;20409;-69
2022/11/18 06:25:50;;;;;;;8.10;5.85;;;2.20;1.00;;;;;;5053280;28;20860;-69
2022/11/18 06:28:16;;;;;;;9.17;5.70;;;2.10;1.00;;;;;;5053325;28;20167;-72
2022/11/18 06:30:42;;;;;;;10.53;7.00;;;2.10;1.00;;;;;;5053933;28;20159;-69
2022/11/18 06:33:08;;;;;;;9.83;6.23;;;2.10;1.00;;;;;;5052574;28;20460;-72
2022/11/18 06:35:34;;;;;;;7.30;6.10;;;2.20;1.00;;;;;;5053055;28;20655;-68
2022/11/18 06:37:59;;;;;;;8.37;6.60;;;2.20;1.00;;;;;;5053754;28;20524;-69
2022/11/18 06:40:25;;;;;;;8.03;7.00;;;2.10;1.00;;;;;;5053103;28;20401;-68
2022/11/18 06:45:35;;;;;;;7.53;5.73;;;2.10;1.00;;;;;;5052714;28;20255;-70
2022/11/18 06:48:01;;;;;;;7.93;6.50;;;2.10;1.00;;;;;;5053460;28;20898;-69
2022/11/18 06:50:27;;;;;;;9.93;8.00;;;2.10;1.00;;;;;;5052256;28;20171;-71
2022/11/18 06:52:53;;;;;;;11.07;7.15;;;2.10;1.00;;;;;;5053735;28;20159;-68
2022/11/18 06:55:19;;;;;;;8.10;6.47;;;2.10;1.00;;;;;;5052808;28;20183;-67
2022/11/18 06:57:44;;;;;;;8.17;7.20;;;2.10;1.00;;;;;;5053389;28;20193;-67
2022/11/18 07:00:11;;;;;;;9.30;6.60;;;2.20;1.00;;;;;;5053290;28;20210;-71
2022/11/18 07:02:37;;;;;;;9.57;7.30;;;2.20;1.00;;;;;;5051979;28;20174;-70
2022/11/18 07:05:04;;;;;;;11.30;6.37;;;2.20;1.00;;;;;;5052201;28;20514;-67
2022/11/18 07:07:29;;;;;;;8.13;5.70;;;2.10;1.00;;;;;;5053140;28;20517;-68
2022/11/18 07:09:55;;;;;;;8.30;6.37;;;2.10;1.00;;;;;;5053321;28;20496;-69
2022/11/18 07:12:21;;;;;;;11.43;8.00;;;2.10;1.00;;;;;;5053210;28;20159;-69
2022/11/18 07:14:47;;;;;;;10.27;6.77;;;2.10;1.00;;;;;;5052483;28;20517;-70
2022/11/18 07:17:12;;;;;;;13.70;7.50;;;2.00;1.00;;;;;;5053182;28;20278;-72
2022/11/18 07:19:39;;;;;;;10.80;7.47;;;2.00;1.00;;;;;;5053246;28;20163;-68
2022/11/18 07:22:06;;;;;;;10.73;7.97;;;2.00;1.00;;;;;;5053258;28;20209;-68
2022/11/18 07:24:33;;;;;;;12.40;7.50;;;2.00;1.00;;;;;;5051792;28;20937;-70
2022/11/18 07:26:58;;;;;;;10.48;8.30;;;2.00;1.00;;;;;;5053142;28;20437;-71
2022/11/18 07:29:24;;;;;;;11.93;7.23;;;2.10;1.00;;;;;;5053179;28;20195;-68
2022/11/18 07:31:50;;;;;;;9.93;8.93;;;2.00;1.00;;;;;;5053212;28;20163;-68
2022/11/18 07:34:16;;;;;;;9.50;7.80;;;2.00;1.00;;;;;;5051004;28;20822;-68
2022/11/18 07:36:42;;;;;;;14.13;8.93;;;2.00;1.00;;;;;;5052948;28;20190;-71
2022/11/18 07:39:08;;;;;;;11.20;8.90;;;2.00;1.00;;;;;;5053056;28;20194;-71
2022/11/18 07:41:34;;;;;;;15.50;8.23;;;2.00;1.00;;;;;;5052867;28;20402;-72
2022/11/18 07:44:02;;;;;;;12.50;7.50;;;2.00;1.00;;;;;;5051839;28;20428;-72
2022/11/18 07:46:33;;;;;;;15.05;8.77;;;2.00;1.00;;;;;;5051515;28;20421;-72
2022/11/18 07:49:01;;;;;;;11.38;7.30;;;2.00;1.00;;;;;;5052873;28;20253;-72
2022/11/18 07:51:30;;;;;;;9.90;8.00;;;2.00;1.00;;;;;;5053491;28;20176;-73
2022/11/18 07:53:56;;;;;;;11.57;7.80;;;2.10;1.00;;;;;;5056228;28;20759;-73
2022/11/18 07:56:22;;;;;;;11.17;7.80;;;2.10;1.00;;;;;;5056556;28;20437;-72
2022/11/18 07:58:53;;;;;;;17.00;7.20;;;2.10;1.00;;;;;;5056537;28;20401;-73
2022/11/18 08:01:21;;;;;;;11.90;7.43;;;2.10;1.00;;;;;;5056603;28;20416;-72
2022/11/18 08:03:47;;;;;;;8.57;7.03;;;2.10;1.00;;;;;;5055370;28;20437;-73
2022/11/18 08:06:16;;;;;;;8.20;6.63;;;2.20;1.00;;;;;;5056348;28;20888;-72
2022/11/18 08:08:42;;;;;;;8.77;7.03;;;2.20;1.00;;;;;;5056312;28;20909;-73
2022/11/18 08:11:11;;;;;;;14.30;5.93;;;2.20;1.00;;;;;;5056312;28;20488;-73
2022/11/18 08:13:36;;;;;;;7.20;6.27;;;2.20;1.00;;;;;;5056057;28;20425;-75
2022/11/18 08:16:03;;;;;;;7.60;5.87;;;2.30;1.00;;;;;;5056240;28;20982;-72
2022/11/18 08:18:31;;;;;;;8.83;6.40;;;2.30;1.00;;;;;;5054933;28;20175;-73
2022/11/18 08:21:04;;;;;;;12.23;5.63;;;2.30;1.00;;;;;;5055773;28;20405;-73
2022/11/18 08:23:30;;;;;;;11.60;5.70;;;2.40;1.00;;;;;;5056064;28;20418;-73
2022/11/18 08:26:02;;;;;;;11.17;5.33;;;2.50;1.00;;;;;;5055575;28;20445;-72
2022/11/18 08:28:28;;;;;;;6.13;4.53;;;2.60;1.00;;;;;;5056364;28;20397;-73
2022/11/18 08:30:54;;;;;;;6.90;5.17;;;2.60;1.00;;;;;;5056181;28;20493;-72
2022/11/18 08:33:19;;;;;;;6.10;5.00;;;2.70;1.00;;;;;;5055943;28;20175;-73
2022/11/18 08:35:45;;;;;;;6.47;5.50;;;2.70;1.00;;;;;;5055006;28;20191;-72
2022/11/18 08:38:11;;;;;;;4.73;4.10;;;2.80;1.00;;;;;;5055755;28;20393;-73
2022/11/18 08:40:40;;;;;;;3.73;3.43;;;2.80;1.00;;;;;;5055962;28;20169;-73
2022/11/18 08:43:05;;;;;;;4.30;3.93;;;2.90;1.00;;;;;;5055862;28;20410;-72
2022/11/18 08:45:31;;;;;;;6.53;4.37;;;2.90;1.00;;;;;;5054942;28;20929;-73
2022/11/18 08:47:57;;;;;;;4.93;4.30;;;3.00;1.00;;;;;;5055729;28;20175;-72
2022/11/18 08:50:22;;;;;;;6.93;4.10;;;3.00;1.00;;;;;;5055728;28;20167;-72
2022/11/18 08:52:48;;;;;;;10.37;4.80;;;3.10;1.00;;;;;;5055664;28;20163;-73
2022/11/18 08:55:14;;;;;;;5.33;4.83;;;3.20;1.00;;;;;;5054406;28;20171;-74
2022/11/18 08:57:40;;;;;;;4.77;4.30;;;3.20;1.00;;;;;;5055453;28;20198;-73
2022/11/18 09:00:07;;;;;;;4.53;4.17;;;3.30;1.00;;;;;;5055613;28;20177;-73
2022/11/18 09:02:32;;;;;;;4.93;4.53;;;3.30;1.00;;;;;;5055019;28;20175;-73
2022/11/18 09:04:58;;;;;;;4.77;4.27;;;3.40;1.00;;;;;;5054505;28;20514;-73
2022/11/18 09:07:24;;;;;;;7.37;4.70;;;3.40;1.00;;;;;;5055193;28;20582;-73
2022/11/18 09:09:49;;;;;;;4.57;4.03;;;3.40;1.00;;;;;;5055271;28;20171;-72
2022/11/18 09:12:16;;;;;;;5.30;4.13;;;3.50;1.00;;;;;;5054578;28;20175;-74
2022/11/18 09:14:43;;;;;;;4.73;4.30;;;3.50;1.00;;;;;;5054661;28;20179;-72
2022/11/18 09:17:09;;;;;;;5.07;4.50;;;3.50;1.00;;;;;;5055095;28;20456;-71
2022/11/18 09:19:35;;;;;;;4.10;3.60;;;3.50;1.00;;;;;;5054897;28;20406;-72
2022/11/18 09:22:01;;;;;;;4.33;3.50;;;3.60;1.00;;;;;;5055449;28;20440;-75
2022/11/18 09:24:26;;;;;;;4.70;3.97;;;3.70;1.00;;;;;;5053103;28;20221;-72
2022/11/18 09:26:52;;;;;;;6.37;4.53;;;3.60;1.00;;;;;;5055117;28;20187;-73
2022/11/18 09:29:21;;;;;;;5.70;4.90;;;3.70;1.00;;;;;;5055106;28;20750;-72
2022/11/18 09:31:46;;;;;;;6.03;4.40;;;3.70;1.00;;;;;;5054556;28;20489;-74
2022/11/18 09:34:12;;;;;;;8.10;4.30;;;3.80;1.00;;;;;;5053010;28;21014;-72
2022/11/18 09:36:38;;;;;;;7.50;4.70;;;3.80;1.00;;;;;;5054747;28;20187;-71
2022/11/18 09:39:04;;;;;;;4.77;3.87;;;3.90;1.00;;;;;;5054736;28;20171;-72
2022/11/18 09:41:46;;;;;;;4.20;3.80;;;3.90;1.00;;;;;;5053375;28;20632;-74
2022/11/18 09:44:50;;;;;;;4.87;4.07;;;4.00;1.00;;;;;;5054041;28;20175;-73
2022/11/18 09:47:30;;;;;;;4.93;4.50;;;4.00;1.00;;;;;;5054589;28;20421;-72
2022/11/18 09:50:02;;;;;;;4.57;3.53;;;4.10;1.00;;;;;;5054467;28;20413;-73
2022/11/18 09:52:43;;;;;;;5.03;4.00;;;4.10;1.00;;;;;;5054194;28;20406;-73
2022/11/18 09:55:13;;;;;;;4.80;4.27;;;4.10;1.00;;;;;;5053826;28;20467;-72
2022/11/18 09:57:51;;;;;;;3.83;3.53;;;4.20;1.00;;;;;;5054254;28;20421;-72
2022/11/18 10:00:25;;;;;;;4.63;4.13;;;4.20;1.00;;;;;;5054527;28;20420;-73
2022/11/18 10:03:05;;;;;;;6.40;4.23;;;4.30;1.00;;;;;;5052837;28;20413;-73
2022/11/18 10:05:43;;;;;;;4.13;3.30;;;4.30;1.00;;;;;;5053353;28;20457;-73
2022/11/18 10:08:21;;;;;;;4.40;3.77;;;4.30;1.00;;;;;;5053710;28;20408;-72
2022/11/18 10:11:06;;;;;;;3.53;2.90;;;4.40;1.00;;;;;;5054284;28;20407;-72
2022/11/18 10:13:50;;;;;;;3.37;3.10;;;4.40;1.00;;;;;;5053763;28;20409;-72
2022/11/18 10:16:25;;;;;;;3.23;3.03;;;4.40;1.00;;;;;;5053527;28;20509;-72
2022/11/18 10:19:24;;;;;;;3.90;3.17;;;4.50;1.00;;;;;;5052879;28;20421;-72
2022/11/18 10:21:59;;;;;;;2.77;2.57;;;4.50;1.00;;;;;;5053866;28;20407;-71
2022/11/18 10:24:36;;;;;;;2.90;2.67;;;4.60;1.00;;;;;;5052941;28;20478;-72
2022/11/18 10:27:09;;;;;;;2.97;2.77;;;4.50;1.00;;;;;;5053974;28;20424;-71
2022/11/18 10:29:35;;;;;;;3.70;3.13;;;4.50;1.00;;;;;;5052845;28;20416;-72
2022/11/18 10:32:13;;;;;;;4.07;3.30;;;4.60;1.00;;;;;;5053775;28;20456;-74
2022/11/18 10:34:46;;;;;;;3.60;3.30;;;4.60;1.00;;;;;;5051895;28;20631;-73
2022/11/18 10:37:32;;;;;;;3.13;2.83;;;4.70;1.00;;;;;;5053570;28;20945;-73
2022/11/18 10:40:01;;;;;;;3.70;3.40;;;4.70;1.00;;;;;;5053550;28;20475;-72
2022/11/18 10:42:39;;;;;;;3.93;2.63;;;4.70;1.00;;;;;;5053407;28;20451;-73
2022/11/18 10:45:32;;;;;;;3.43;3.23;;;4.80;1.00;;;;;;5051599;28;20988;-73
2022/11/18 10:48:07;;;;;;;3.47;3.17;;;4.80;1.00;;;;;;5051771;28;20413;-75
2022/11/18 10:50:39;;;;;;;4.03;3.60;;;4.80;1.00;;;;;;5053519;28;20413;-73
2022/11/18 10:53:25;;;;;;;3.67;3.43;;;4.80;1.00;;;;;;5053517;28;20414;-74
2022/11/18 10:56:17;;;;;;;4.63;3.17;;;4.80;1.00;;;;;;5052729;28;20791;-71
2022/11/18 10:58:48;;;;;;;3.73;3.43;;;4.90;1.00;;;;;;5050963;28;20950;-73
2022/11/18 11:01:22;;;;;;;3.17;2.90;;;4.90;1.00;;;;;;5053341;28;20413;-71
2022/11/18 11:04:21;;;;;;;3.27;2.67;;;4.90;1.00;;;;;;5052574;28;20459;-71
2022/11/18 11:06:47;;;;;;;4.33;4.00;;;4.90;1.00;;;;;;5053204;28;20442;-70
2022/11/18 11:09:13;;;;;;;3.80;3.50;;;4.90;1.00;;;;;;5053315;28;20411;-71
2022/11/18 11:11:42;;;;;;;2.97;2.77;;;4.90;1.00;;;;;;5053284;28;20547;-73
2022/11/18 11:14:16;;;;;;;4.53;3.33;;;4.90;1.00;;;;;;5052517;28;20176;-71
2022/11/18 11:17:10;;;;;;;2.70;2.50;;;5.00;1.00;;;;;;5053056;28;20439;-73
2022/11/18 11:19:48;;;;;;;3.30;2.97;;;4.90;1.00;;;;;;5047852;28;20457;-71
2022/11/18 11:22:15;;;;;;;5.20;4.07;;;4.90;1.00;;;;;;5053135;28;20435;-72
2022/11/18 11:24:41;;;;;;;3.00;2.80;;;4.90;1.00;;;;;;5050869;28;21019;-70
2022/11/18 11:27:37;;;;;;;3.10;2.80;;;4.90;1.00;;;;;;5056366;28;20516;-70
2022/11/18 11:30:21;;;;;;;6.97;2.90;;;4.90;1.00;;;;;;5057304;28;20488;-73
2022/11/18 11:33:40;;;;;;;4.10;3.00;;;4.90;1.00;;;;;;5056991;28;20415;-74
2022/11/18 11:36:40;;;;;;;4.07;3.07;;;4.90;1.00;;;;;;5040563;28;20810;-73
2022/11/18 11:39:37;;;;;;;2.93;2.73;;;4.80;1.00;;;;;;5020098;28;20463;-71
2022/11/18 11:42:17;;;;;;;3.03;2.57;;;4.90;1.00;;;;;;5057045;28;20407;-69
2022/11/18 11:44:55;;;;;;;3.30;2.37;;;4.90;1.00;;;;;;5056061;28;20461;-74
2022/11/18 11:50:29;;;;;;;2.63;2.33;;;5.00;1.00;;;;;;5056863;28;20422;-73
2022/11/18 11:52:54;;;;;;;4.83;2.60;;;5.00;1.00;;;;;;5056220;28;20409;-72
2022/11/18 11:55:20;;;;;;;4.93;2.90;;;5.00;1.00;;;;;;5056106;28;20490;-73
2022/11/18 11:58:43;;;;;;;2.40;2.30;;;4.90;1.00;;;;;;5056730;28;20231;-71
2022/11/18 12:01:32;;;;;;;3.03;2.73;;;5.00;1.00;;;;;;5014823;28;20180;-72
2022/11/18 12:04:18;;;;;;;3.33;3.13;;;5.00;1.00;;;;;;5014169;28;20565;-72
2022/11/18 12:06:48;;;;;;;4.87;2.60;;;5.00;1.00;;;;;;5046650;28;20763;-74
2022/11/18 12:09:49;;;;;;;5.57;3.07;;;5.00;1.00;;;;;;5056351;28;20399;-73
2022/11/18 12:12:35;;;;;;;2.40;2.30;;;5.00;1.00;;;;;;5021123;28;20894;-74
2022/11/18 12:15:28;;;;;;;2.50;2.30;;;5.00;1.00;;;;;;5055625;28;20398;-71
2022/11/18 12:17:53;;;;;;;2.37;2.17;;;5.00;1.00;;;;;;5056288;28;20409;-73
2022/11/18 12:20:39;;;;;;;3.00;2.80;;;5.00;1.00;;;;;;5056193;28;20398;-72
2022/11/18 12:23:18;;;;;;;3.20;2.50;;;5.10;1.00;;;;;;5056110;28;20179;-71
2022/11/18 12:25:46;;;;;;;2.67;2.43;;;5.00;1.00;;;;;;5055298;28;20472;-74
2022/11/18 12:28:31;;;;;;;2.70;2.50;;;5.10;1.00;;;;;;5055766;28;20404;-72
2022/11/18 12:31:17;;;;;;;2.93;2.73;;;5.00;1.00;;;;;;5056201;28;20480;-73
2022/11/18 12:33:46;;;;;;;2.77;2.57;;;5.00;1.00;;;;;;5055375;28;20461;-73
2022/11/18 12:36:44;;;;;;;3.20;2.90;;;5.10;1.00;;;;;;5055991;28;20993;-71
2022/11/18 12:39:30;;;;;;;2.70;2.50;;;5.10;1.00;;;;;;5032649;28;20421;-73
2022/11/18 12:44:43;;;;;;;3.20;3.00;;;5.00;1.00;;;;;;5054731;28;20449;-73
2022/11/18 12:47:13;;;;;;;2.57;2.20;;;5.10;1.00;;;;;;5055644;28;20417;-73
2022/11/18 12:49:44;;;;;;;2.43;2.23;;;5.10;1.00;;;;;;5055904;28;20778;-71
2022/11/18 12:52:29;;;;;;;3.07;2.73;;;5.00;1.00;;;;;;5055707;28;20427;-71
2022/11/18 12:55:00;;;;;;;2.43;2.17;;;5.00;1.00;;;;;;5053984;28;20403;-73
2022/11/18 12:57:33;;;;;;;2.10;2.00;;;5.00;1.00;;;;;;5055690;28;20535;-72
2022/11/18 13:00:21;;;;;;;3.40;2.40;;;5.00;1.00;;;;;;5055729;28;20399;-72
2022/11/18 13:02:51;;;;;;;2.30;1.67;;;5.00;1.00;;;;;;5055461;28;20910;-72
2022/11/18 13:05:26;;;;;;;3.47;2.97;;;5.00;1.00;;;;;;5054304;28;20968;-73
2022/11/18 13:08:13;;;;;;;2.50;2.00;;;5.00;1.00;;;;;;5055539;28;20417;-73
2022/11/18 13:10:45;;;;;;;3.40;2.07;;;4.90;1.00;;;;;;5055495;28;20405;-73
2022/11/18 13:13:36;;;;;;;2.63;2.50;;;4.90;1.00;;;;;;5053930;28;20762;-72
2022/11/18 13:19:00;;;;;;;2.43;2.23;;;5.00;1.00;;;;;;5055349;28;20797;-73
2022/11/18 13:24:14;;;;;;;2.33;2.13;;;5.00;1.00;;;;;;5054089;28;20215;-71
2022/11/18 13:26:42;;;;;;;2.63;2.50;;;5.10;1.00;;;;;;5054969;28;20428;-72
2022/11/18 13:29:29;;;;;;;4.03;2.27;;;5.20;1.00;;;;;;5055176;28;20405;-71
2022/11/18 13:32:01;;;;;;;2.30;2.20;;;5.40;1.00;;;;;;5054885;28;20794;-72
2022/11/18 13:34:29;;;;;;;2.20;2.10;;;5.40;1.00;;;;;;5054341;28;20466;-72
2022/11/18 13:36:57;;;;;;;2.40;2.20;;;5.40;1.00;;;;;;5054905;28;20409;-73
2022/11/18 13:39:43;;;;;;;2.60;2.40;;;5.30;1.00;;;;;;5054742;28;20411;-72
2022/11/18 13:42:23;;;;;;;2.93;2.50;;;5.20;1.00;;;;;;5054421;28;20442;-72
2022/11/18 13:44:59;;;;;;;2.53;2.33;;;5.10;1.00;;;;;;5052750;28;20530;-72
2022/11/18 13:47:35;;;;;;;2.10;2.00;;;5.00;1.00;;;;;;5054535;28;20927;-73